TAIP48 YSNW-YCBG
Flight info
| Callsign | TAIP48 |
|---|---|
| Flight time | 2h 56m |
| Altitude | 9000 |
| Route | URBOB/N0177F070 W436 OTKED/N0175F060 H20 MOTRA W407 IPLET |
| Aircraft | DA42/L-SBDGRY/S |
Departure
| Time | 2026-04-24 05:40 |
|---|---|
| Airport | Naval Air Station Nowra - HMAS Albatross (YSNW) |
Arrival
| Time | 2026-04-24 08:37 |
|---|---|
| Airport | Cambridge Aerodrome (YCBG) |
| Time | Latitude | Longitude | Altitude | Speed | Heading |
|---|---|---|---|---|---|
| 2026-04-24 05:34 | -34.93886 | 150.55075 | 379 ft | 0 kts | 314° |
| 2026-04-24 05:39 | -34.93885 | 150.55074 | 384 ft | 3 kts | 316° |
| 2026-04-24 05:39 | -34.93839 | 150.55002 | 386 ft | 17 kts | 315° |
| 2026-04-24 05:39 | -34.93868 | 150.54794 | 485 ft | 35 kts | 254° |
| 2026-04-24 05:39 | -34.94031 | 150.54504 | 676 ft | 48 kts | 225° |
| 2026-04-24 05:40 | -34.94264 | 150.54141 | 874 ft | 62 kts | 217° |
| 2026-04-24 05:40 | -34.94641 | 150.53740 | 1067 ft | 84 kts | 195° |
| 2026-04-24 05:40 | -34.95251 | 150.53451 | 1247 ft | 107 kts | 188° |
| 2026-04-24 05:40 | -34.96068 | 150.53172 | 1420 ft | 134 kts | 193° |
| 2026-04-24 05:41 | -34.97034 | 150.52797 | 1499 ft | 156 kts | 195° |
| 2026-04-24 05:41 | -34.98087 | 150.52365 | 1695 ft | 157 kts | 194° |
| 2026-04-24 05:41 | -34.99090 | 150.51953 | 1907 ft | 145 kts | 196° |
| 2026-04-24 05:41 | -35.00023 | 150.51566 | 2091 ft | 141 kts | 197° |
| 2026-04-24 05:42 | -35.00954 | 150.51193 | 2281 ft | 142 kts | 197° |
| 2026-04-24 05:42 | -35.01890 | 150.50809 | 2472 ft | 142 kts | 197° |
| 2026-04-24 05:42 | -35.02838 | 150.50423 | 2671 ft | 142 kts | 197° |
| 2026-04-24 05:42 | -35.03770 | 150.50040 | 2869 ft | 142 kts | 197° |
| 2026-04-24 05:43 | -35.04710 | 150.49657 | 3060 ft | 143 kts | 198° |
| 2026-04-24 05:43 | -35.05668 | 150.49265 | 3254 ft | 144 kts | 198° |
| 2026-04-24 05:43 | -35.06615 | 150.48875 | 3455 ft | 144 kts | 198° |
| 2026-04-24 05:43 | -35.07574 | 150.48483 | 3653 ft | 144 kts | 198° |
| 2026-04-24 05:44 | -35.08517 | 150.48094 | 3844 ft | 143 kts | 198° |
| 2026-04-24 05:44 | -35.09459 | 150.47707 | 4031 ft | 144 kts | 198° |
| 2026-04-24 05:44 | -35.10428 | 150.47308 | 4218 ft | 146 kts | 198° |
| 2026-04-24 05:44 | -35.11382 | 150.46921 | 4416 ft | 144 kts | 198° |
| 2026-04-24 05:45 | -35.12324 | 150.46527 | 4607 ft | 143 kts | 198° |
| 2026-04-24 05:45 | -35.13279 | 150.46133 | 4808 ft | 143 kts | 198° |
| 2026-04-24 05:45 | -35.14230 | 150.45743 | 5004 ft | 144 kts | 198° |
| 2026-04-24 05:45 | -35.15181 | 150.45351 | 5204 ft | 144 kts | 197° |
| 2026-04-24 05:46 | -35.16128 | 150.44961 | 5390 ft | 144 kts | 197° |
| 2026-04-24 05:46 | -35.17086 | 150.44566 | 5584 ft | 143 kts | 198° |
| 2026-04-24 05:46 | -35.18027 | 150.44176 | 5771 ft | 144 kts | 197° |
| 2026-04-24 05:46 | -35.18981 | 150.43782 | 5961 ft | 144 kts | 197° |
| 2026-04-24 05:47 | -35.19934 | 150.43387 | 6151 ft | 145 kts | 197° |
| 2026-04-24 05:47 | -35.20901 | 150.42987 | 6350 ft | 145 kts | 197° |
| 2026-04-24 05:47 | -35.21854 | 150.42593 | 6550 ft | 145 kts | 197° |
| 2026-04-24 05:47 | -35.22819 | 150.42192 | 6740 ft | 145 kts | 197° |
| 2026-04-24 05:48 | -35.23775 | 150.41801 | 6934 ft | 145 kts | 197° |
| 2026-04-24 05:48 | -35.24733 | 150.41403 | 7132 ft | 144 kts | 197° |
| 2026-04-24 05:48 | -35.25678 | 150.41014 | 7329 ft | 144 kts | 197° |
| 2026-04-24 05:48 | -35.26638 | 150.40614 | 7524 ft | 145 kts | 197° |
| 2026-04-24 05:49 | -35.27593 | 150.40219 | 7719 ft | 146 kts | 197° |
| 2026-04-24 05:49 | -35.28553 | 150.39822 | 7917 ft | 146 kts | 197° |
| 2026-04-24 05:49 | -35.29528 | 150.39416 | 8117 ft | 147 kts | 197° |
| 2026-04-24 05:49 | -35.30493 | 150.39014 | 8308 ft | 148 kts | 196° |
| 2026-04-24 05:50 | -35.31482 | 150.38608 | 8510 ft | 148 kts | 196° |
| 2026-04-24 05:50 | -35.32454 | 150.38202 | 8707 ft | 148 kts | 195° |
| 2026-04-24 05:50 | -35.33442 | 150.37787 | 8847 ft | 149 kts | 195° |
| 2026-04-24 05:50 | -35.34423 | 150.37384 | 8902 ft | 149 kts | 195° |
| 2026-04-24 05:51 | -35.35414 | 150.36972 | 8945 ft | 148 kts | 195° |
| 2026-04-24 05:51 | -35.36386 | 150.36574 | 8959 ft | 147 kts | 195° |
| 2026-04-24 05:51 | -35.37352 | 150.36171 | 8958 ft | 147 kts | 196° |
| 2026-04-24 05:51 | -35.38332 | 150.35762 | 8941 ft | 151 kts | 199° |
| 2026-04-24 05:52 | -35.39379 | 150.35342 | 8961 ft | 164 kts | 195° |
| 2026-04-24 05:52 | -35.40496 | 150.34871 | 8946 ft | 170 kts | 198° |
| 2026-04-24 05:52 | -35.41622 | 150.34381 | 8962 ft | 173 kts | 196° |
| 2026-04-24 05:52 | -35.42784 | 150.33908 | 8961 ft | 174 kts | 197° |
| 2026-04-24 05:53 | -35.43927 | 150.33429 | 8966 ft | 175 kts | 197° |
| 2026-04-24 05:53 | -35.45093 | 150.32948 | 8960 ft | 175 kts | 197° |
| 2026-04-24 05:53 | -35.46246 | 150.32469 | 8962 ft | 176 kts | 197° |
| 2026-04-24 05:53 | -35.47415 | 150.31981 | 8961 ft | 176 kts | 196° |
| 2026-04-24 05:54 | -35.48569 | 150.31500 | 8959 ft | 175 kts | 196° |
| 2026-04-24 05:54 | -35.49729 | 150.31023 | 8959 ft | 174 kts | 197° |
| 2026-04-24 05:54 | -35.50868 | 150.30547 | 8965 ft | 173 kts | 197° |
| 2026-04-24 05:54 | -35.52022 | 150.30067 | 8962 ft | 174 kts | 197° |
| 2026-04-24 05:55 | -35.53163 | 150.29596 | 8963 ft | 174 kts | 197° |
| 2026-04-24 05:55 | -35.54325 | 150.29117 | 8965 ft | 174 kts | 197° |
| 2026-04-24 05:55 | -35.55463 | 150.28639 | 8965 ft | 174 kts | 197° |
| 2026-04-24 05:55 | -35.56628 | 150.28152 | 8961 ft | 175 kts | 197° |
| 2026-04-24 05:56 | -35.57779 | 150.27673 | 8960 ft | 175 kts | 197° |
| 2026-04-24 05:56 | -35.58941 | 150.27190 | 8963 ft | 175 kts | 197° |
| 2026-04-24 05:56 | -35.59578 | 150.26923 | 8956 ft | 175 kts | 197° |
| 2026-04-24 05:56 | -35.60659 | 150.26474 | 8960 ft | 175 kts | 197° |
| 2026-04-24 05:57 | -35.61811 | 150.25993 | 8968 ft | 175 kts | 197° |
| 2026-04-24 05:57 | -35.62981 | 150.25503 | 8961 ft | 176 kts | 197° |
| 2026-04-24 05:57 | -35.64139 | 150.25020 | 8967 ft | 176 kts | 197° |
| 2026-04-24 05:57 | -35.65308 | 150.24535 | 8976 ft | 176 kts | 197° |
| 2026-04-24 05:58 | -35.66462 | 150.24056 | 8982 ft | 175 kts | 197° |
| 2026-04-24 05:58 | -35.67610 | 150.23576 | 8979 ft | 174 kts | 197° |
| 2026-04-24 05:58 | -35.68767 | 150.23093 | 8984 ft | 174 kts | 197° |
| 2026-04-24 05:58 | -35.69907 | 150.22618 | 8968 ft | 174 kts | 198° |
| 2026-04-24 05:59 | -35.71067 | 150.22130 | 8949 ft | 175 kts | 197° |
| 2026-04-24 05:59 | -35.72220 | 150.21652 | 8951 ft | 175 kts | 197° |
| 2026-04-24 05:59 | -35.73369 | 150.21168 | 8952 ft | 175 kts | 197° |
| 2026-04-24 05:59 | -35.74538 | 150.20676 | 8958 ft | 176 kts | 197° |
| 2026-04-24 06:00 | -35.75697 | 150.20195 | 8962 ft | 176 kts | 197° |
| 2026-04-24 06:00 | -35.76862 | 150.19704 | 8961 ft | 176 kts | 197° |
| 2026-04-24 06:00 | -35.78028 | 150.19217 | 8959 ft | 176 kts | 196° |
| 2026-04-24 06:00 | -35.79187 | 150.18733 | 8960 ft | 176 kts | 197° |
| 2026-04-24 06:01 | -35.80358 | 150.18242 | 8964 ft | 175 kts | 197° |
| 2026-04-24 06:01 | -35.81509 | 150.17761 | 8961 ft | 174 kts | 197° |
| 2026-04-24 06:01 | -35.82650 | 150.17284 | 8961 ft | 174 kts | 197° |
| 2026-04-24 06:01 | -35.83807 | 150.16797 | 8959 ft | 174 kts | 197° |
| 2026-04-24 06:02 | -35.84948 | 150.16321 | 8955 ft | 174 kts | 197° |
| 2026-04-24 06:02 | -35.86107 | 150.15832 | 8961 ft | 174 kts | 197° |
| 2026-04-24 06:02 | -35.87252 | 150.15349 | 8969 ft | 175 kts | 197° |
| 2026-04-24 06:02 | -35.88399 | 150.14868 | 8966 ft | 175 kts | 197° |
| 2026-04-24 06:03 | -35.89560 | 150.14386 | 8966 ft | 174 kts | 196° |
| 2026-04-24 06:03 | -35.90732 | 150.14041 | 8973 ft | 173 kts | 188° |
| 2026-04-24 06:03 | -35.91926 | 150.13785 | 8979 ft | 172 kts | 189° |
| 2026-04-24 06:03 | -35.93102 | 150.13500 | 8977 ft | 172 kts | 190° |
| 2026-04-24 06:04 | -35.94286 | 150.13216 | 8978 ft | 173 kts | 189° |
| 2026-04-24 06:04 | -35.95470 | 150.12938 | 8963 ft | 173 kts | 189° |
| 2026-04-24 06:04 | -35.96666 | 150.12651 | 8961 ft | 173 kts | 189° |
| 2026-04-24 06:04 | -35.97843 | 150.12375 | 8966 ft | 173 kts | 189° |
| 2026-04-24 06:05 | -35.99036 | 150.12093 | 8966 ft | 173 kts | 189° |
| 2026-04-24 06:05 | -36.00216 | 150.11813 | 8961 ft | 173 kts | 189° |
| 2026-04-24 06:05 | -36.01408 | 150.11531 | 8957 ft | 173 kts | 189° |
| 2026-04-24 06:05 | -36.02592 | 150.11247 | 8950 ft | 173 kts | 189° |
| 2026-04-24 06:06 | -36.03772 | 150.10969 | 8937 ft | 173 kts | 189° |
| 2026-04-24 06:06 | -36.04955 | 150.10687 | 8957 ft | 173 kts | 189° |
| 2026-04-24 06:06 | -36.06150 | 150.10403 | 8962 ft | 173 kts | 189° |
| 2026-04-24 06:06 | -36.07335 | 150.10126 | 8962 ft | 173 kts | 189° |
| 2026-04-24 06:07 | -36.08529 | 150.09839 | 8956 ft | 174 kts | 189° |
| 2026-04-24 06:07 | -36.09712 | 150.09563 | 8948 ft | 174 kts | 189° |
| 2026-04-24 06:07 | -36.10916 | 150.09268 | 8940 ft | 175 kts | 190° |
| 2026-04-24 06:07 | -36.12117 | 150.08980 | 8939 ft | 174 kts | 189° |
| 2026-04-24 06:08 | -36.13316 | 150.08694 | 8935 ft | 174 kts | 189° |
| 2026-04-24 06:08 | -36.14509 | 150.08408 | 8938 ft | 175 kts | 189° |
| 2026-04-24 06:08 | -36.15722 | 150.08119 | 8948 ft | 176 kts | 189° |
| 2026-04-24 06:08 | -36.16922 | 150.07835 | 8955 ft | 176 kts | 189° |
| 2026-04-24 06:09 | -36.18126 | 150.07548 | 8953 ft | 176 kts | 189° |
| 2026-04-24 06:09 | -36.19343 | 150.07259 | 8953 ft | 176 kts | 189° |
| 2026-04-24 06:09 | -36.20545 | 150.06970 | 8951 ft | 177 kts | 189° |
| 2026-04-24 06:09 | -36.21756 | 150.06683 | 8948 ft | 174 kts | 189° |
| 2026-04-24 06:10 | -36.22925 | 150.06400 | 8936 ft | 169 kts | 188° |
| 2026-04-24 06:10 | -36.24062 | 150.06123 | 8927 ft | 164 kts | 188° |
| 2026-04-24 06:10 | -36.25175 | 150.05856 | 8911 ft | 160 kts | 188° |
| 2026-04-24 06:11 | -36.27332 | 150.05339 | 8896 ft | 157 kts | 188° |
| 2026-04-24 06:11 | -36.28064 | 150.05165 | 8896 ft | 157 kts | 188° |
| 2026-04-24 06:11 | -36.29148 | 150.04907 | 8896 ft | 157 kts | 188° |
| 2026-04-24 06:11 | -36.30224 | 150.04649 | 8896 ft | 157 kts | 188° |
| 2026-04-24 06:12 | -36.31294 | 150.04393 | 8896 ft | 157 kts | 188° |
| 2026-04-24 06:12 | -36.32382 | 150.04134 | 8896 ft | 157 kts | 188° |
| 2026-04-24 06:12 | -36.33456 | 150.03877 | 8896 ft | 157 kts | 188° |
| 2026-04-24 06:12 | -36.34541 | 150.03616 | 8895 ft | 157 kts | 188° |
| 2026-04-24 06:13 | -36.35614 | 150.03361 | 8895 ft | 157 kts | 188° |
| 2026-04-24 06:13 | -36.36686 | 150.03104 | 8895 ft | 157 kts | 188° |
| 2026-04-24 06:13 | -36.37772 | 150.02843 | 8895 ft | 157 kts | 188° |
| 2026-04-24 06:13 | -36.38363 | 150.02702 | 8891 ft | 157 kts | 188° |
| 2026-04-24 06:14 | -36.39455 | 150.02443 | 8881 ft | 159 kts | 188° |
| 2026-04-24 06:14 | -36.40548 | 150.02184 | 8875 ft | 162 kts | 188° |
| 2026-04-24 06:14 | -36.41674 | 150.01915 | 8870 ft | 164 kts | 188° |
| 2026-04-24 06:14 | -36.42805 | 150.01646 | 8867 ft | 167 kts | 189° |
| 2026-04-24 06:15 | -36.43965 | 150.01372 | 8872 ft | 170 kts | 189° |
| 2026-04-24 06:15 | -36.45142 | 150.01094 | 8881 ft | 172 kts | 189° |
| 2026-04-24 06:15 | -36.46323 | 150.00815 | 8891 ft | 175 kts | 190° |
| 2026-04-24 06:15 | -36.47537 | 150.00529 | 8903 ft | 177 kts | 190° |
| 2026-04-24 06:16 | -36.48744 | 150.00240 | 8912 ft | 178 kts | 190° |
| 2026-04-24 06:16 | -36.49970 | 149.99947 | 8916 ft | 178 kts | 190° |
| 2026-04-24 06:16 | -36.51186 | 149.99655 | 8917 ft | 178 kts | 191° |
| 2026-04-24 06:16 | -36.52419 | 149.99361 | 8917 ft | 178 kts | 191° |
| 2026-04-24 06:17 | -36.53633 | 149.99069 | 8917 ft | 178 kts | 191° |
| 2026-04-24 06:17 | -36.54863 | 149.98773 | 8917 ft | 178 kts | 191° |
| 2026-04-24 06:17 | -36.56075 | 149.98482 | 8918 ft | 178 kts | 191° |
| 2026-04-24 06:17 | -36.57300 | 149.98187 | 8917 ft | 178 kts | 191° |
| 2026-04-24 06:18 | -36.58513 | 149.97896 | 8917 ft | 178 kts | 191° |
| 2026-04-24 06:18 | -36.59724 | 149.97604 | 8917 ft | 178 kts | 191° |
| 2026-04-24 06:18 | -36.60949 | 149.97310 | 8917 ft | 178 kts | 191° |
| 2026-04-24 06:18 | -36.62173 | 149.97015 | 8917 ft | 178 kts | 191° |
| 2026-04-24 06:19 | -36.63383 | 149.96724 | 8917 ft | 178 kts | 191° |
| 2026-04-24 06:19 | -36.64607 | 149.96429 | 8917 ft | 178 kts | 191° |
| 2026-04-24 06:19 | -36.65812 | 149.96138 | 8917 ft | 178 kts | 191° |
| 2026-04-24 06:19 | -36.67037 | 149.95844 | 8917 ft | 178 kts | 191° |
| 2026-04-24 06:20 | -36.68250 | 149.95550 | 8917 ft | 178 kts | 191° |
| 2026-04-24 06:20 | -36.69476 | 149.95254 | 8917 ft | 178 kts | 191° |
| 2026-04-24 06:20 | -36.70690 | 149.94961 | 8917 ft | 178 kts | 191° |
| 2026-04-24 06:20 | -36.71900 | 149.94670 | 8917 ft | 178 kts | 191° |
| 2026-04-24 06:21 | -36.73128 | 149.94374 | 8917 ft | 178 kts | 191° |
| 2026-04-24 06:21 | -36.74337 | 149.94081 | 8917 ft | 178 kts | 191° |
| 2026-04-24 06:21 | -36.75560 | 149.93787 | 8917 ft | 177 kts | 191° |
| 2026-04-24 06:21 | -36.76769 | 149.93495 | 8917 ft | 177 kts | 191° |
| 2026-04-24 06:22 | -36.77991 | 149.93199 | 8917 ft | 178 kts | 191° |
| 2026-04-24 06:22 | -36.79203 | 149.92906 | 8917 ft | 178 kts | 191° |
| 2026-04-24 06:22 | -36.80431 | 149.92610 | 8917 ft | 178 kts | 191° |
| 2026-04-24 06:22 | -36.81648 | 149.92316 | 8918 ft | 178 kts | 191° |
| 2026-04-24 06:23 | -36.82877 | 149.92018 | 8905 ft | 178 kts | 191° |
| 2026-04-24 06:23 | -36.84087 | 149.91725 | 8897 ft | 178 kts | 191° |
| 2026-04-24 06:23 | -36.85303 | 149.91431 | 8894 ft | 178 kts | 191° |
| 2026-04-24 06:23 | -36.86535 | 149.91132 | 8892 ft | 178 kts | 191° |
| 2026-04-24 06:24 | -36.87744 | 149.90839 | 8892 ft | 178 kts | 191° |
| 2026-04-24 06:24 | -36.88969 | 149.90543 | 8892 ft | 178 kts | 191° |
| 2026-04-24 06:24 | -36.90183 | 149.90248 | 8892 ft | 178 kts | 191° |
| 2026-04-24 06:24 | -36.91415 | 149.89947 | 8892 ft | 178 kts | 192° |
| 2026-04-24 06:25 | -36.92622 | 149.89633 | 8893 ft | 178 kts | 192° |
| 2026-04-24 06:25 | -36.93831 | 149.89313 | 8893 ft | 178 kts | 192° |
| 2026-04-24 06:25 | -36.95054 | 149.88992 | 8893 ft | 178 kts | 192° |
| 2026-04-24 06:25 | -36.96276 | 149.88670 | 8894 ft | 178 kts | 192° |
| 2026-04-24 06:26 | -36.97481 | 149.88353 | 8894 ft | 178 kts | 192° |
| 2026-04-24 06:26 | -36.98706 | 149.88029 | 8894 ft | 178 kts | 192° |
| 2026-04-24 06:26 | -36.99911 | 149.87712 | 8895 ft | 178 kts | 192° |
| 2026-04-24 06:26 | -37.01137 | 149.87389 | 8896 ft | 178 kts | 192° |
| 2026-04-24 06:27 | -37.02343 | 149.87071 | 8896 ft | 178 kts | 192° |
| 2026-04-24 06:27 | -37.03550 | 149.86752 | 8896 ft | 178 kts | 192° |
| 2026-04-24 06:27 | -37.04771 | 149.86430 | 8896 ft | 178 kts | 192° |
| 2026-04-24 06:27 | -37.05988 | 149.86108 | 8896 ft | 178 kts | 192° |
| 2026-04-24 06:28 | -37.07197 | 149.85790 | 8896 ft | 178 kts | 192° |
| 2026-04-24 06:28 | -37.08418 | 149.85467 | 8896 ft | 178 kts | 192° |
| 2026-04-24 06:28 | -37.09635 | 149.85146 | 8896 ft | 178 kts | 192° |
| 2026-04-24 06:28 | -37.10846 | 149.84813 | 8893 ft | 179 kts | 193° |
| 2026-04-24 06:29 | -37.12069 | 149.84485 | 8896 ft | 178 kts | 192° |
| 2026-04-24 06:29 | -37.13270 | 149.84169 | 8895 ft | 177 kts | 192° |
| 2026-04-24 06:29 | -37.14485 | 149.83846 | 8894 ft | 177 kts | 192° |
| 2026-04-24 06:29 | -37.15702 | 149.83524 | 8894 ft | 178 kts | 192° |
| 2026-04-24 06:30 | -37.16920 | 149.83202 | 8895 ft | 178 kts | 192° |
| 2026-04-24 06:30 | -37.18124 | 149.82883 | 8895 ft | 178 kts | 192° |
| 2026-04-24 06:30 | -37.19347 | 149.82559 | 8895 ft | 178 kts | 192° |
| 2026-04-24 06:30 | -37.20571 | 149.82236 | 8895 ft | 178 kts | 192° |
| 2026-04-24 06:31 | -37.21775 | 149.81915 | 8895 ft | 178 kts | 192° |
| 2026-04-24 06:31 | -37.22994 | 149.81593 | 8894 ft | 178 kts | 192° |
| 2026-04-24 06:31 | -37.24217 | 149.81268 | 8894 ft | 178 kts | 192° |
| 2026-04-24 06:31 | -37.25440 | 149.80943 | 8894 ft | 178 kts | 192° |
| 2026-04-24 06:32 | -37.26647 | 149.80623 | 8893 ft | 178 kts | 192° |
| 2026-04-24 06:32 | -37.27867 | 149.80299 | 8893 ft | 178 kts | 192° |
| 2026-04-24 06:32 | -37.29088 | 149.79974 | 8893 ft | 178 kts | 192° |
| 2026-04-24 06:32 | -37.30294 | 149.79654 | 8893 ft | 178 kts | 193° |
| 2026-04-24 06:33 | -37.31517 | 149.79329 | 8892 ft | 178 kts | 192° |
| 2026-04-24 06:33 | -37.32734 | 149.79005 | 8892 ft | 178 kts | 193° |
| 2026-04-24 06:33 | -37.33941 | 149.78683 | 8892 ft | 178 kts | 193° |
| 2026-04-24 06:33 | -37.35165 | 149.78358 | 8891 ft | 178 kts | 193° |
| 2026-04-24 06:34 | -37.36371 | 149.78036 | 8891 ft | 178 kts | 193° |
| 2026-04-24 06:34 | -37.37594 | 149.77712 | 8890 ft | 178 kts | 193° |
| 2026-04-24 06:34 | -37.38817 | 149.77385 | 8890 ft | 178 kts | 192° |
| 2026-04-24 06:34 | -37.40026 | 149.77063 | 8890 ft | 178 kts | 193° |
| 2026-04-24 06:35 | -37.41256 | 149.76735 | 8890 ft | 178 kts | 192° |
| 2026-04-24 06:35 | -37.42463 | 149.76413 | 8889 ft | 178 kts | 193° |
| 2026-04-24 06:35 | -37.43687 | 149.76086 | 8889 ft | 178 kts | 193° |
| 2026-04-24 06:35 | -37.44893 | 149.75764 | 8889 ft | 178 kts | 193° |
| 2026-04-24 06:36 | -37.46117 | 149.75438 | 8888 ft | 178 kts | 193° |
| 2026-04-24 06:36 | -37.47340 | 149.75111 | 8888 ft | 178 kts | 193° |
| 2026-04-24 06:36 | -37.48547 | 149.74789 | 8887 ft | 178 kts | 193° |
| 2026-04-24 06:36 | -37.49769 | 149.74463 | 8887 ft | 178 kts | 193° |
| 2026-04-24 06:37 | -37.50979 | 149.74139 | 8886 ft | 178 kts | 193° |
| 2026-04-24 06:37 | -37.52203 | 149.73811 | 8886 ft | 178 kts | 193° |
| 2026-04-24 06:37 | -37.53409 | 149.73489 | 8886 ft | 178 kts | 193° |
| 2026-04-24 06:37 | -37.54632 | 149.73161 | 8885 ft | 178 kts | 193° |
| 2026-04-24 06:38 | -37.55848 | 149.72836 | 8885 ft | 178 kts | 193° |
| 2026-04-24 06:38 | -37.57066 | 149.72510 | 8885 ft | 178 kts | 193° |
| 2026-04-24 06:38 | -37.58282 | 149.72185 | 8885 ft | 178 kts | 193° |
| 2026-04-24 06:38 | -37.59497 | 149.71852 | 8885 ft | 178 kts | 194° |
| 2026-04-24 06:39 | -37.60698 | 149.71442 | 8885 ft | 178 kts | 198° |
| 2026-04-24 06:39 | -37.61887 | 149.70998 | 8885 ft | 178 kts | 197° |
| 2026-04-24 06:39 | -37.63086 | 149.70569 | 8885 ft | 178 kts | 197° |
| 2026-04-24 06:39 | -37.64281 | 149.70134 | 8884 ft | 178 kts | 197° |
| 2026-04-24 06:40 | -37.65475 | 149.69699 | 8884 ft | 179 kts | 197° |
| 2026-04-24 06:40 | -37.66671 | 149.69266 | 8884 ft | 179 kts | 197° |
| 2026-04-24 06:40 | -37.67869 | 149.68829 | 8884 ft | 179 kts | 197° |
| 2026-04-24 06:40 | -37.69063 | 149.68394 | 8884 ft | 179 kts | 197° |
| 2026-04-24 06:41 | -37.70264 | 149.67956 | 8884 ft | 179 kts | 197° |
| 2026-04-24 06:41 | -37.71449 | 149.67525 | 8883 ft | 179 kts | 197° |
| 2026-04-24 06:41 | -37.72644 | 149.67090 | 8883 ft | 179 kts | 197° |
| 2026-04-24 06:41 | -37.73850 | 149.66650 | 8883 ft | 179 kts | 197° |
| 2026-04-24 06:42 | -37.75039 | 149.66216 | 8883 ft | 179 kts | 197° |
| 2026-04-24 06:42 | -37.76243 | 149.65776 | 8882 ft | 179 kts | 197° |
| 2026-04-24 06:42 | -37.77444 | 149.65338 | 8882 ft | 179 kts | 197° |
| 2026-04-24 06:42 | -37.78630 | 149.64905 | 8882 ft | 179 kts | 197° |
| 2026-04-24 06:43 | -37.79837 | 149.64464 | 8882 ft | 179 kts | 197° |
| 2026-04-24 06:43 | -37.81027 | 149.64029 | 8882 ft | 179 kts | 197° |
| 2026-04-24 06:43 | -37.82233 | 149.63588 | 8881 ft | 179 kts | 197° |
| 2026-04-24 06:43 | -37.83420 | 149.63155 | 8881 ft | 179 kts | 197° |
| 2026-04-24 06:44 | -37.84624 | 149.62714 | 8881 ft | 179 kts | 197° |
| 2026-04-24 06:44 | -37.85810 | 149.62280 | 8881 ft | 179 kts | 197° |
| 2026-04-24 06:44 | -37.87014 | 149.61839 | 8880 ft | 179 kts | 197° |
| 2026-04-24 06:44 | -37.88203 | 149.61404 | 8880 ft | 179 kts | 197° |
| 2026-04-24 06:45 | -37.89405 | 149.60963 | 8880 ft | 179 kts | 197° |
| 2026-04-24 06:45 | -37.90609 | 149.60522 | 8880 ft | 179 kts | 197° |
| 2026-04-24 06:45 | -37.91795 | 149.60088 | 8879 ft | 179 kts | 197° |
| 2026-04-24 06:45 | -37.92997 | 149.59647 | 8879 ft | 179 kts | 197° |
| 2026-04-24 06:46 | -37.94185 | 149.59210 | 8879 ft | 179 kts | 197° |
| 2026-04-24 06:46 | -37.95388 | 149.58769 | 8879 ft | 179 kts | 197° |
| 2026-04-24 06:46 | -37.96591 | 149.58328 | 8878 ft | 179 kts | 197° |
| 2026-04-24 06:46 | -37.97777 | 149.57893 | 8878 ft | 179 kts | 197° |
| 2026-04-24 06:47 | -37.98977 | 149.57452 | 8878 ft | 179 kts | 197° |
| 2026-04-24 06:47 | -38.00169 | 149.57014 | 8878 ft | 179 kts | 197° |
| 2026-04-24 06:47 | -38.01364 | 149.56575 | 8878 ft | 179 kts | 197° |
| 2026-04-24 06:47 | -38.02561 | 149.56134 | 8878 ft | 179 kts | 197° |
| 2026-04-24 06:48 | -38.03760 | 149.55693 | 8879 ft | 179 kts | 197° |
| 2026-04-24 06:48 | -38.04964 | 149.55250 | 8880 ft | 179 kts | 197° |
| 2026-04-24 06:48 | -38.06163 | 149.54810 | 8880 ft | 179 kts | 197° |
| 2026-04-24 06:48 | -38.07341 | 149.54375 | 8880 ft | 179 kts | 197° |
| 2026-04-24 06:49 | -38.08539 | 149.53935 | 8879 ft | 179 kts | 197° |
| 2026-04-24 06:49 | -38.09744 | 149.53491 | 8879 ft | 179 kts | 197° |
| 2026-04-24 06:49 | -38.10932 | 149.53038 | 8877 ft | 180 kts | 198° |
| 2026-04-24 06:49 | -38.12132 | 149.52594 | 8880 ft | 179 kts | 197° |
| 2026-04-24 06:50 | -38.13325 | 149.52156 | 8878 ft | 178 kts | 197° |
| 2026-04-24 06:50 | -38.14522 | 149.51712 | 8877 ft | 178 kts | 197° |
| 2026-04-24 06:50 | -38.15718 | 149.51271 | 8877 ft | 179 kts | 197° |
| 2026-04-24 06:50 | -38.16915 | 149.50830 | 8878 ft | 179 kts | 197° |
| 2026-04-24 06:51 | -38.18112 | 149.50388 | 8878 ft | 179 kts | 197° |
| 2026-04-24 06:51 | -38.19301 | 149.49948 | 8877 ft | 179 kts | 197° |
| 2026-04-24 06:51 | -38.20505 | 149.49506 | 8877 ft | 179 kts | 197° |
| 2026-04-24 06:51 | -38.21688 | 149.49068 | 8877 ft | 179 kts | 197° |
| 2026-04-24 06:52 | -38.22893 | 149.48622 | 8877 ft | 179 kts | 197° |
| 2026-04-24 06:52 | -38.24078 | 149.48184 | 8877 ft | 179 kts | 197° |
| 2026-04-24 06:52 | -38.25281 | 149.47739 | 8876 ft | 179 kts | 197° |
| 2026-04-24 06:52 | -38.26483 | 149.47293 | 8876 ft | 179 kts | 197° |
| 2026-04-24 06:53 | -38.27673 | 149.46854 | 8876 ft | 179 kts | 197° |
| 2026-04-24 06:53 | -38.28873 | 149.46408 | 8876 ft | 179 kts | 197° |
| 2026-04-24 06:53 | -38.30062 | 149.45969 | 8876 ft | 179 kts | 197° |
| 2026-04-24 06:53 | -38.31263 | 149.45523 | 8876 ft | 179 kts | 197° |
| 2026-04-24 06:54 | -38.32464 | 149.45077 | 8876 ft | 179 kts | 197° |
| 2026-04-24 06:54 | -38.33651 | 149.44638 | 8875 ft | 179 kts | 197° |
| 2026-04-24 06:54 | -38.34851 | 149.44192 | 8875 ft | 179 kts | 197° |
| 2026-04-24 06:54 | -38.36050 | 149.43747 | 8875 ft | 179 kts | 197° |
| 2026-04-24 06:55 | -38.37254 | 149.43300 | 8875 ft | 179 kts | 197° |
| 2026-04-24 06:55 | -38.38440 | 149.42859 | 8875 ft | 179 kts | 197° |
| 2026-04-24 06:55 | -38.39645 | 149.42412 | 8875 ft | 179 kts | 197° |
| 2026-04-24 06:55 | -38.40831 | 149.41971 | 8875 ft | 179 kts | 197° |
| 2026-04-24 06:56 | -38.42032 | 149.41524 | 8874 ft | 179 kts | 197° |
| 2026-04-24 06:56 | -38.43218 | 149.41083 | 8874 ft | 178 kts | 197° |
| 2026-04-24 06:56 | -38.44420 | 149.40636 | 8874 ft | 178 kts | 197° |
| 2026-04-24 06:56 | -38.45604 | 149.40195 | 8874 ft | 178 kts | 197° |
| 2026-04-24 06:57 | -38.46804 | 149.39748 | 8873 ft | 178 kts | 197° |
| 2026-04-24 06:57 | -38.48005 | 149.39300 | 8873 ft | 178 kts | 197° |
| 2026-04-24 06:57 | -38.49187 | 149.38861 | 8873 ft | 178 kts | 197° |
| 2026-04-24 06:57 | -38.50388 | 149.38413 | 8873 ft | 178 kts | 197° |
| 2026-04-24 06:58 | -38.51588 | 149.37965 | 8873 ft | 178 kts | 197° |
| 2026-04-24 06:58 | -38.52772 | 149.37523 | 8872 ft | 178 kts | 197° |
| 2026-04-24 06:58 | -38.53974 | 149.37074 | 8872 ft | 178 kts | 197° |
| 2026-04-24 06:58 | -38.55161 | 149.36632 | 8876 ft | 178 kts | 197° |
| 2026-04-24 06:59 | -38.56357 | 149.36186 | 8887 ft | 178 kts | 197° |
| 2026-04-24 06:59 | -38.57547 | 149.35742 | 8901 ft | 177 kts | 197° |
| 2026-04-24 06:59 | -38.58714 | 149.35307 | 8915 ft | 176 kts | 198° |
| 2026-04-24 06:59 | -38.59893 | 149.34869 | 8924 ft | 176 kts | 198° |
| 2026-04-24 07:00 | -38.61082 | 149.34454 | 8931 ft | 175 kts | 198° |
| 2026-04-24 07:00 | -38.62260 | 149.34004 | 8933 ft | 175 kts | 198° |
| 2026-04-24 07:00 | -38.63428 | 149.33571 | 8934 ft | 175 kts | 198° |
| 2026-04-24 07:00 | -38.64597 | 149.33134 | 8934 ft | 176 kts | 198° |
| 2026-04-24 07:01 | -38.65778 | 149.32692 | 8934 ft | 176 kts | 198° |
| 2026-04-24 07:01 | -38.66964 | 149.32250 | 8934 ft | 176 kts | 198° |
| 2026-04-24 07:01 | -38.68132 | 149.31813 | 8933 ft | 176 kts | 198° |
| 2026-04-24 07:01 | -38.69317 | 149.31369 | 8933 ft | 176 kts | 199° |
| 2026-04-24 07:02 | -38.70483 | 149.30933 | 8933 ft | 176 kts | 199° |
| 2026-04-24 07:02 | -38.71665 | 149.30489 | 8932 ft | 176 kts | 199° |
| 2026-04-24 07:02 | -38.72847 | 149.30045 | 8932 ft | 176 kts | 199° |
| 2026-04-24 07:02 | -38.74014 | 149.29607 | 8931 ft | 176 kts | 199° |
| 2026-04-24 07:03 | -38.75201 | 149.29161 | 8931 ft | 176 kts | 199° |
| 2026-04-24 07:03 | -38.76369 | 149.28722 | 8931 ft | 176 kts | 198° |
| 2026-04-24 07:03 | -38.77551 | 149.28279 | 8931 ft | 176 kts | 198° |
| 2026-04-24 07:03 | -38.78731 | 149.27835 | 8930 ft | 176 kts | 198° |
| 2026-04-24 07:04 | -38.79898 | 149.27396 | 8930 ft | 176 kts | 199° |
| 2026-04-24 07:04 | -38.81082 | 149.26950 | 8930 ft | 176 kts | 199° |
| 2026-04-24 07:04 | -38.82250 | 149.26511 | 8929 ft | 176 kts | 199° |
| 2026-04-24 07:04 | -38.83431 | 149.26067 | 8929 ft | 176 kts | 198° |
| 2026-04-24 07:05 | -38.84615 | 149.25619 | 8929 ft | 176 kts | 199° |
| 2026-04-24 07:05 | -38.85781 | 149.25182 | 8928 ft | 176 kts | 199° |
| 2026-04-24 07:05 | -38.86963 | 149.24736 | 8928 ft | 176 kts | 199° |
| 2026-04-24 07:05 | -38.88145 | 149.24291 | 8927 ft | 176 kts | 199° |
| 2026-04-24 07:06 | -38.89314 | 149.23850 | 8927 ft | 176 kts | 199° |
| 2026-04-24 07:06 | -38.90497 | 149.23402 | 8927 ft | 176 kts | 198° |
| 2026-04-24 07:06 | -38.91668 | 149.22960 | 8926 ft | 176 kts | 199° |
| 2026-04-24 07:06 | -38.92848 | 149.22514 | 8926 ft | 176 kts | 199° |
| 2026-04-24 07:07 | -38.94030 | 149.22069 | 8926 ft | 176 kts | 199° |
| 2026-04-24 07:07 | -38.95197 | 149.21628 | 8925 ft | 176 kts | 198° |
| 2026-04-24 07:07 | -38.97561 | 149.20734 | 8925 ft | 176 kts | 198° |
| 2026-04-24 07:08 | -38.98728 | 149.20293 | 8924 ft | 176 kts | 199° |
| 2026-04-24 07:08 | -38.99909 | 149.19846 | 8924 ft | 176 kts | 199° |
| 2026-04-24 07:08 | -39.01078 | 149.19403 | 8924 ft | 176 kts | 199° |
| 2026-04-24 07:08 | -39.02261 | 149.18956 | 8923 ft | 176 kts | 199° |
| 2026-04-24 07:09 | -39.03444 | 149.18509 | 8923 ft | 176 kts | 199° |
| 2026-04-24 07:09 | -39.04616 | 149.18066 | 8923 ft | 176 kts | 199° |
| 2026-04-24 07:09 | -39.05800 | 149.17618 | 8922 ft | 176 kts | 199° |
| 2026-04-24 07:09 | -39.06974 | 149.17174 | 8922 ft | 176 kts | 199° |
| 2026-04-24 07:10 | -39.08158 | 149.16725 | 8922 ft | 176 kts | 199° |
| 2026-04-24 07:10 | -39.09329 | 149.16280 | 8921 ft | 176 kts | 199° |
| 2026-04-24 07:10 | -39.10524 | 149.15822 | 8914 ft | 177 kts | 200° |
| 2026-04-24 07:10 | -39.11711 | 149.15363 | 8922 ft | 177 kts | 198° |
| 2026-04-24 07:11 | -39.12877 | 149.14923 | 8918 ft | 176 kts | 199° |
| 2026-04-24 07:11 | -39.14059 | 149.14471 | 8914 ft | 176 kts | 199° |
| 2026-04-24 07:11 | -39.15228 | 149.14029 | 8911 ft | 176 kts | 199° |
| 2026-04-24 07:11 | -39.16415 | 149.13577 | 8909 ft | 177 kts | 199° |
| 2026-04-24 07:12 | -39.17600 | 149.13126 | 8908 ft | 176 kts | 199° |
| 2026-04-24 07:12 | -39.18769 | 149.12680 | 8907 ft | 176 kts | 199° |
| 2026-04-24 07:12 | -39.19950 | 149.12231 | 8906 ft | 176 kts | 199° |
| 2026-04-24 07:12 | -39.21136 | 149.11780 | 8906 ft | 176 kts | 199° |
| 2026-04-24 07:13 | -39.22302 | 149.11336 | 8905 ft | 176 kts | 199° |
| 2026-04-24 07:13 | -39.23488 | 149.10884 | 8905 ft | 176 kts | 199° |
| 2026-04-24 07:13 | -39.24659 | 149.10437 | 8905 ft | 176 kts | 199° |
| 2026-04-24 07:13 | -39.25845 | 149.09985 | 8905 ft | 176 kts | 199° |
| 2026-04-24 07:14 | -39.27018 | 149.09538 | 8904 ft | 176 kts | 199° |
| 2026-04-24 07:14 | -39.28204 | 149.09085 | 8904 ft | 177 kts | 199° |
| 2026-04-24 07:14 | -39.29391 | 149.08632 | 8904 ft | 177 kts | 199° |
| 2026-04-24 07:14 | -39.30560 | 149.08186 | 8904 ft | 177 kts | 199° |
| 2026-04-24 07:15 | -39.31744 | 149.07733 | 8904 ft | 177 kts | 199° |
| 2026-04-24 07:15 | -39.32928 | 149.07281 | 8903 ft | 177 kts | 199° |
| 2026-04-24 07:15 | -39.34113 | 149.06828 | 8903 ft | 177 kts | 199° |
| 2026-04-24 07:15 | -39.35283 | 149.06381 | 8903 ft | 177 kts | 199° |
| 2026-04-24 07:16 | -39.36472 | 149.05927 | 8903 ft | 177 kts | 199° |
| 2026-04-24 07:16 | -39.37643 | 149.05478 | 8902 ft | 177 kts | 199° |
| 2026-04-24 07:16 | -39.38826 | 149.05025 | 8902 ft | 177 kts | 199° |
| 2026-04-24 07:16 | -39.40012 | 149.04572 | 8902 ft | 177 kts | 199° |
| 2026-04-24 07:17 | -39.41180 | 149.04125 | 8902 ft | 177 kts | 199° |
| 2026-04-24 07:17 | -39.42364 | 149.03670 | 8901 ft | 177 kts | 199° |
| 2026-04-24 07:17 | -39.43543 | 149.03218 | 8901 ft | 177 kts | 199° |
| 2026-04-24 07:17 | -39.44724 | 149.02766 | 8901 ft | 177 kts | 199° |
| 2026-04-24 07:18 | -39.45910 | 149.02312 | 8901 ft | 177 kts | 199° |
| 2026-04-24 07:18 | -39.47085 | 149.01862 | 8900 ft | 177 kts | 199° |
| 2026-04-24 07:18 | -39.48275 | 149.01407 | 8900 ft | 177 kts | 199° |
| 2026-04-24 07:18 | -39.49451 | 149.00955 | 8900 ft | 177 kts | 199° |
| 2026-04-24 07:19 | -39.50640 | 149.00499 | 8900 ft | 177 kts | 199° |
| 2026-04-24 07:19 | -39.51829 | 149.00041 | 8900 ft | 177 kts | 199° |
| 2026-04-24 07:19 | -39.53002 | 148.99591 | 8900 ft | 177 kts | 199° |
| 2026-04-24 07:19 | -39.54195 | 148.99132 | 8899 ft | 177 kts | 199° |
| 2026-04-24 07:20 | -39.55368 | 148.98682 | 8899 ft | 177 kts | 199° |
| 2026-04-24 07:20 | -39.56555 | 148.98224 | 8899 ft | 177 kts | 199° |
| 2026-04-24 07:20 | -39.57744 | 148.97766 | 8899 ft | 177 kts | 199° |
| 2026-04-24 07:20 | -39.58917 | 148.97316 | 8898 ft | 177 kts | 199° |
| 2026-04-24 07:21 | -39.60106 | 148.96857 | 8898 ft | 177 kts | 199° |
| 2026-04-24 07:21 | -39.61280 | 148.96405 | 8898 ft | 177 kts | 199° |
| 2026-04-24 07:21 | -39.62468 | 148.95947 | 8898 ft | 177 kts | 199° |
| 2026-04-24 07:21 | -39.63657 | 148.95488 | 8897 ft | 177 kts | 199° |
| 2026-04-24 07:22 | -39.64832 | 148.95035 | 8897 ft | 177 kts | 199° |
| 2026-04-24 07:22 | -39.66017 | 148.94579 | 8897 ft | 177 kts | 199° |
| 2026-04-24 07:22 | -39.67209 | 148.94118 | 8897 ft | 177 kts | 199° |
| 2026-04-24 07:22 | -39.68384 | 148.93665 | 8896 ft | 177 kts | 199° |
| 2026-04-24 07:23 | -39.69560 | 148.93210 | 8896 ft | 177 kts | 199° |
| 2026-04-24 07:23 | -39.70747 | 148.92750 | 8896 ft | 177 kts | 199° |
| 2026-04-24 07:23 | -39.71938 | 148.92291 | 8896 ft | 177 kts | 199° |
| 2026-04-24 07:23 | -39.73112 | 148.91836 | 8896 ft | 177 kts | 199° |
| 2026-04-24 07:24 | -39.74298 | 148.91377 | 8895 ft | 177 kts | 199° |
| 2026-04-24 07:24 | -39.75484 | 148.90920 | 8895 ft | 177 kts | 199° |
| 2026-04-24 07:24 | -39.76658 | 148.90465 | 8895 ft | 177 kts | 199° |
| 2026-04-24 07:24 | -39.77846 | 148.90004 | 8895 ft | 177 kts | 199° |
| 2026-04-24 07:25 | -39.79034 | 148.89545 | 8895 ft | 177 kts | 199° |
| 2026-04-24 07:25 | -39.80204 | 148.89092 | 8894 ft | 177 kts | 199° |
| 2026-04-24 07:25 | -39.81392 | 148.88631 | 8894 ft | 177 kts | 199° |
| 2026-04-24 07:25 | -39.82581 | 148.88170 | 8894 ft | 177 kts | 199° |
| 2026-04-24 07:26 | -39.83751 | 148.87715 | 8893 ft | 177 kts | 199° |
| 2026-04-24 07:26 | -39.84938 | 148.87254 | 8891 ft | 177 kts | 199° |
| 2026-04-24 07:26 | -39.86127 | 148.86793 | 8890 ft | 177 kts | 199° |
| 2026-04-24 07:26 | -39.87314 | 148.86333 | 8888 ft | 177 kts | 199° |
| 2026-04-24 07:27 | -39.88488 | 148.85877 | 8887 ft | 177 kts | 199° |
| 2026-04-24 07:27 | -39.89673 | 148.85416 | 8887 ft | 177 kts | 199° |
| 2026-04-24 07:27 | -39.90844 | 148.84961 | 8887 ft | 177 kts | 199° |
| 2026-04-24 07:27 | -39.92033 | 148.84499 | 8886 ft | 177 kts | 199° |
| 2026-04-24 07:28 | -39.93218 | 148.84036 | 8886 ft | 177 kts | 199° |
| 2026-04-24 07:28 | -39.94393 | 148.83580 | 8886 ft | 177 kts | 199° |
| 2026-04-24 07:28 | -39.95581 | 148.83118 | 8886 ft | 177 kts | 199° |
| 2026-04-24 07:28 | -39.96755 | 148.82660 | 8885 ft | 177 kts | 199° |
| 2026-04-24 07:29 | -39.97943 | 148.82198 | 8885 ft | 177 kts | 199° |
| 2026-04-24 07:29 | -39.99128 | 148.81737 | 8885 ft | 177 kts | 199° |
| 2026-04-24 07:29 | -40.00301 | 148.81280 | 8885 ft | 177 kts | 199° |
| 2026-04-24 07:29 | -40.01494 | 148.80817 | 8889 ft | 177 kts | 199° |
| 2026-04-24 07:30 | -40.02668 | 148.80357 | 8893 ft | 177 kts | 199° |
| 2026-04-24 07:30 | -40.03865 | 148.79890 | 8894 ft | 177 kts | 199° |
| 2026-04-24 07:30 | -40.05047 | 148.79428 | 8896 ft | 177 kts | 199° |
| 2026-04-24 07:30 | -40.06233 | 148.78966 | 8891 ft | 177 kts | 199° |
| 2026-04-24 07:31 | -40.07415 | 148.78503 | 8888 ft | 177 kts | 199° |
| 2026-04-24 07:31 | -40.08596 | 148.78041 | 8887 ft | 177 kts | 199° |
| 2026-04-24 07:31 | -40.09777 | 148.77579 | 8886 ft | 177 kts | 199° |
| 2026-04-24 07:31 | -40.10972 | 148.77094 | 8884 ft | 178 kts | 200° |
| 2026-04-24 07:32 | -40.12158 | 148.76631 | 8887 ft | 177 kts | 199° |
| 2026-04-24 07:32 | -40.13339 | 148.76170 | 8885 ft | 177 kts | 200° |
| 2026-04-24 07:32 | -40.14522 | 148.75707 | 8884 ft | 178 kts | 200° |
| 2026-04-24 07:32 | -40.15708 | 148.75243 | 8884 ft | 178 kts | 200° |
| 2026-04-24 07:33 | -40.16909 | 148.74771 | 8885 ft | 178 kts | 200° |
| 2026-04-24 07:33 | -40.18091 | 148.74307 | 8885 ft | 178 kts | 200° |
| 2026-04-24 07:33 | -40.19281 | 148.73840 | 8884 ft | 178 kts | 200° |
| 2026-04-24 07:33 | -40.20456 | 148.73379 | 8884 ft | 178 kts | 200° |
| 2026-04-24 07:34 | -40.21650 | 148.72910 | 8884 ft | 178 kts | 200° |
| 2026-04-24 07:34 | -40.22844 | 148.72441 | 8883 ft | 178 kts | 200° |
| 2026-04-24 07:34 | -40.24024 | 148.71979 | 8883 ft | 178 kts | 200° |
| 2026-04-24 07:34 | -40.25215 | 148.71509 | 8883 ft | 178 kts | 200° |
| 2026-04-24 07:35 | -40.26391 | 148.71046 | 8883 ft | 178 kts | 200° |
| 2026-04-24 07:35 | -40.27586 | 148.70577 | 8883 ft | 178 kts | 200° |
| 2026-04-24 07:35 | -40.28777 | 148.70108 | 8883 ft | 178 kts | 199° |
| 2026-04-24 07:35 | -40.29954 | 148.69646 | 8883 ft | 178 kts | 200° |
| 2026-04-24 07:36 | -40.31155 | 148.69173 | 8883 ft | 178 kts | 200° |
| 2026-04-24 07:36 | -40.32331 | 148.68709 | 8882 ft | 178 kts | 200° |
| 2026-04-24 07:36 | -40.33525 | 148.68239 | 8882 ft | 178 kts | 200° |
| 2026-04-24 07:36 | -40.34700 | 148.67775 | 8882 ft | 178 kts | 200° |
| 2026-04-24 07:37 | -40.35895 | 148.67305 | 8882 ft | 178 kts | 200° |
| 2026-04-24 07:37 | -40.37083 | 148.66835 | 8881 ft | 178 kts | 200° |
| 2026-04-24 07:37 | -40.38258 | 148.66373 | 8881 ft | 178 kts | 200° |
| 2026-04-24 07:37 | -40.39451 | 148.65901 | 8881 ft | 178 kts | 200° |
| 2026-04-24 07:38 | -40.40643 | 148.65430 | 8881 ft | 178 kts | 200° |
| 2026-04-24 07:38 | -40.41818 | 148.64967 | 8881 ft | 178 kts | 200° |
| 2026-04-24 07:38 | -40.43010 | 148.64494 | 8881 ft | 178 kts | 200° |
| 2026-04-24 07:38 | -40.44187 | 148.64031 | 8880 ft | 178 kts | 200° |
| 2026-04-24 07:39 | -40.45381 | 148.63557 | 8880 ft | 178 kts | 200° |
| 2026-04-24 07:39 | -40.46572 | 148.63088 | 8880 ft | 178 kts | 200° |
| 2026-04-24 07:39 | -40.47750 | 148.62620 | 8880 ft | 178 kts | 200° |
| 2026-04-24 07:39 | -40.48940 | 148.62149 | 8880 ft | 178 kts | 200° |
| 2026-04-24 07:40 | -40.50116 | 148.61684 | 8880 ft | 178 kts | 200° |
| 2026-04-24 07:40 | -40.51306 | 148.61212 | 8880 ft | 178 kts | 200° |
| 2026-04-24 07:40 | -40.52496 | 148.60741 | 8880 ft | 178 kts | 200° |
| 2026-04-24 07:40 | -40.53674 | 148.60274 | 8879 ft | 178 kts | 200° |
| 2026-04-24 07:41 | -40.54864 | 148.59801 | 8879 ft | 178 kts | 200° |
| 2026-04-24 07:41 | -40.56055 | 148.59328 | 8879 ft | 178 kts | 200° |
| 2026-04-24 07:41 | -40.57232 | 148.58861 | 8879 ft | 178 kts | 200° |
| 2026-04-24 07:41 | -40.58425 | 148.58388 | 8879 ft | 178 kts | 200° |
| 2026-04-24 07:42 | -40.59601 | 148.57919 | 8879 ft | 178 kts | 200° |
| 2026-04-24 07:42 | -40.60791 | 148.57446 | 8878 ft | 178 kts | 200° |
| 2026-04-24 07:42 | -40.61966 | 148.56981 | 8878 ft | 178 kts | 200° |
| 2026-04-24 07:42 | -40.63159 | 148.56505 | 8878 ft | 178 kts | 200° |
| 2026-04-24 07:43 | -40.64350 | 148.56032 | 8878 ft | 178 kts | 200° |
| 2026-04-24 07:43 | -40.65522 | 148.55565 | 8878 ft | 178 kts | 200° |
| 2026-04-24 07:43 | -40.66713 | 148.55090 | 8878 ft | 178 kts | 200° |
| 2026-04-24 07:43 | -40.67904 | 148.54617 | 8878 ft | 178 kts | 200° |
| 2026-04-24 07:44 | -40.69078 | 148.54149 | 8878 ft | 178 kts | 200° |
| 2026-04-24 07:44 | -40.70267 | 148.53674 | 8877 ft | 178 kts | 200° |
| 2026-04-24 07:44 | -40.71460 | 148.53200 | 8877 ft | 178 kts | 200° |
| 2026-04-24 07:44 | -40.72648 | 148.52725 | 8877 ft | 178 kts | 200° |
| 2026-04-24 07:45 | -40.73825 | 148.52255 | 8877 ft | 178 kts | 200° |
| 2026-04-24 07:45 | -40.75019 | 148.51779 | 8877 ft | 178 kts | 200° |
| 2026-04-24 07:45 | -40.76196 | 148.51308 | 8877 ft | 178 kts | 200° |
| 2026-04-24 07:45 | -40.77387 | 148.50833 | 8876 ft | 178 kts | 200° |
| 2026-04-24 07:46 | -40.78560 | 148.50365 | 8876 ft | 178 kts | 200° |
| 2026-04-24 07:46 | -40.79751 | 148.49889 | 8876 ft | 178 kts | 200° |
| 2026-04-24 07:46 | -40.80943 | 148.49411 | 8876 ft | 178 kts | 200° |
| 2026-04-24 07:46 | -40.82116 | 148.48941 | 8876 ft | 178 kts | 200° |
| 2026-04-24 07:47 | -40.83309 | 148.48465 | 8876 ft | 178 kts | 200° |
| 2026-04-24 07:47 | -40.84483 | 148.47994 | 8875 ft | 178 kts | 200° |
| 2026-04-24 07:47 | -40.85677 | 148.47516 | 8876 ft | 178 kts | 200° |
| 2026-04-24 07:47 | -40.86851 | 148.47044 | 8875 ft | 178 kts | 200° |
| 2026-04-24 07:48 | -40.88043 | 148.46568 | 8875 ft | 178 kts | 200° |
| 2026-04-24 07:48 | -40.89234 | 148.46089 | 8875 ft | 177 kts | 200° |
| 2026-04-24 07:48 | -40.90241 | 148.45686 | 8875 ft | 177 kts | 200° |
| 2026-04-24 07:48 | -40.91416 | 148.45215 | 8875 ft | 177 kts | 200° |
| 2026-04-24 07:49 | -40.92604 | 148.44737 | 8875 ft | 177 kts | 200° |
| 2026-04-24 07:49 | -40.93800 | 148.44257 | 8875 ft | 177 kts | 200° |
| 2026-04-24 07:49 | -40.94984 | 148.43780 | 8875 ft | 177 kts | 200° |
| 2026-04-24 07:49 | -40.96169 | 148.43306 | 8875 ft | 177 kts | 200° |
| 2026-04-24 07:50 | -40.97356 | 148.42828 | 8874 ft | 177 kts | 200° |
| 2026-04-24 07:50 | -40.98528 | 148.42357 | 8874 ft | 177 kts | 200° |
| 2026-04-24 07:50 | -40.99719 | 148.41878 | 8874 ft | 177 kts | 200° |
| 2026-04-24 07:50 | -41.00904 | 148.41402 | 8874 ft | 177 kts | 200° |
| 2026-04-24 07:51 | -41.02076 | 148.40929 | 8874 ft | 177 kts | 200° |
| 2026-04-24 07:51 | -41.03268 | 148.40448 | 8874 ft | 177 kts | 200° |
| 2026-04-24 07:51 | -41.04444 | 148.39973 | 8874 ft | 177 kts | 200° |
| 2026-04-24 07:51 | -41.05638 | 148.39493 | 8917 ft | 177 kts | 200° |
| 2026-04-24 07:52 | -41.06818 | 148.39018 | 8938 ft | 178 kts | 200° |
| 2026-04-24 07:52 | -41.08009 | 148.38536 | 8948 ft | 178 kts | 200° |
| 2026-04-24 07:52 | -41.09190 | 148.38060 | 8952 ft | 177 kts | 200° |
| 2026-04-24 07:52 | -41.10372 | 148.37579 | 8944 ft | 178 kts | 201° |
| 2026-04-24 07:53 | -41.11568 | 148.37079 | 8955 ft | 178 kts | 199° |
| 2026-04-24 07:53 | -41.12757 | 148.36606 | 8967 ft | 175 kts | 199° |
| 2026-04-24 07:53 | -41.13892 | 148.36144 | 8945 ft | 170 kts | 201° |
| 2026-04-24 07:53 | -41.15033 | 148.35681 | 8944 ft | 173 kts | 200° |
| 2026-04-24 07:54 | -41.16195 | 148.35213 | 8951 ft | 173 kts | 200° |
| 2026-04-24 07:54 | -41.17365 | 148.34755 | 8952 ft | 174 kts | 198° |
| 2026-04-24 07:54 | -41.18526 | 148.34312 | 8954 ft | 174 kts | 201° |
| 2026-04-24 07:54 | -41.19690 | 148.33830 | 8954 ft | 174 kts | 200° |
| 2026-04-24 07:55 | -41.20851 | 148.33366 | 8953 ft | 174 kts | 201° |
| 2026-04-24 07:55 | -41.21998 | 148.32901 | 8953 ft | 174 kts | 201° |
| 2026-04-24 07:55 | -41.23154 | 148.32436 | 8954 ft | 174 kts | 201° |
| 2026-04-24 07:55 | -41.24315 | 148.31966 | 8954 ft | 174 kts | 201° |
| 2026-04-24 07:56 | -41.25480 | 148.31493 | 8954 ft | 174 kts | 201° |
| 2026-04-24 07:56 | -41.26633 | 148.31026 | 8953 ft | 174 kts | 201° |
| 2026-04-24 07:56 | -41.27789 | 148.30556 | 8953 ft | 174 kts | 201° |
| 2026-04-24 07:56 | -41.28957 | 148.30081 | 8923 ft | 174 kts | 201° |
| 2026-04-24 07:57 | -41.30112 | 148.29613 | 8889 ft | 174 kts | 201° |
| 2026-04-24 07:57 | -41.31267 | 148.29143 | 8858 ft | 174 kts | 201° |
| 2026-04-24 07:57 | -41.32423 | 148.28674 | 8827 ft | 174 kts | 201° |
| 2026-04-24 07:57 | -41.33580 | 148.28192 | 8826 ft | 173 kts | 202° |
| 2026-04-24 07:58 | -41.34728 | 148.27643 | 8830 ft | 173 kts | 205° |
| 2026-04-24 07:58 | -41.35856 | 148.27087 | 8832 ft | 173 kts | 204° |
| 2026-04-24 07:58 | -41.36981 | 148.26543 | 8832 ft | 173 kts | 204° |
| 2026-04-24 07:58 | -41.38121 | 148.25986 | 8832 ft | 173 kts | 204° |
| 2026-04-24 07:59 | -41.39251 | 148.25435 | 8832 ft | 173 kts | 204° |
| 2026-04-24 07:59 | -41.40383 | 148.24884 | 8832 ft | 173 kts | 204° |
| 2026-04-24 07:59 | -41.41513 | 148.24332 | 8832 ft | 173 kts | 204° |
| 2026-04-24 07:59 | -41.42646 | 148.23779 | 8832 ft | 173 kts | 204° |
| 2026-04-24 08:00 | -41.43780 | 148.23225 | 8832 ft | 173 kts | 204° |
| 2026-04-24 08:00 | -41.44916 | 148.22670 | 8832 ft | 173 kts | 204° |
| 2026-04-24 08:00 | -41.46052 | 148.22115 | 8832 ft | 173 kts | 204° |
| 2026-04-24 08:00 | -41.47184 | 148.21562 | 8833 ft | 173 kts | 204° |
| 2026-04-24 08:01 | -41.48314 | 148.21008 | 8833 ft | 173 kts | 204° |
| 2026-04-24 08:01 | -41.49442 | 148.20456 | 8833 ft | 173 kts | 204° |
| 2026-04-24 08:01 | -41.50584 | 148.19897 | 8833 ft | 173 kts | 204° |
| 2026-04-24 08:01 | -41.51719 | 148.19341 | 8833 ft | 173 kts | 204° |
| 2026-04-24 08:02 | -41.52849 | 148.18788 | 8834 ft | 173 kts | 204° |
| 2026-04-24 08:02 | -41.53974 | 148.18236 | 8835 ft | 173 kts | 204° |
| 2026-04-24 08:02 | -41.55107 | 148.17680 | 8836 ft | 173 kts | 204° |
| 2026-04-24 08:02 | -41.56234 | 148.17128 | 8835 ft | 172 kts | 204° |
| 2026-04-24 08:03 | -41.57361 | 148.16577 | 8658 ft | 173 kts | 204° |
| 2026-04-24 08:03 | -41.58495 | 148.16020 | 8468 ft | 171 kts | 204° |
| 2026-04-24 08:03 | -41.59609 | 148.15472 | 8276 ft | 171 kts | 204° |
| 2026-04-24 08:03 | -41.60720 | 148.14926 | 8083 ft | 170 kts | 204° |
| 2026-04-24 08:04 | -41.61841 | 148.14377 | 7887 ft | 170 kts | 204° |
| 2026-04-24 08:04 | -41.62943 | 148.13837 | 7694 ft | 169 kts | 204° |
| 2026-04-24 08:04 | -41.64048 | 148.13295 | 7501 ft | 169 kts | 204° |
| 2026-04-24 08:04 | -41.65161 | 148.12749 | 7306 ft | 168 kts | 204° |
| 2026-04-24 08:05 | -41.66270 | 148.12203 | 7111 ft | 168 kts | 205° |
| 2026-04-24 08:05 | -41.67363 | 148.11665 | 6918 ft | 168 kts | 204° |
| 2026-04-24 08:05 | -41.68453 | 148.11127 | 6726 ft | 167 kts | 204° |
| 2026-04-24 08:05 | -41.69545 | 148.10590 | 6540 ft | 167 kts | 205° |
| 2026-04-24 08:06 | -41.70649 | 148.10045 | 6439 ft | 167 kts | 205° |
| 2026-04-24 08:06 | -41.71737 | 148.09511 | 6396 ft | 167 kts | 205° |
| 2026-04-24 08:06 | -41.72831 | 148.08972 | 6379 ft | 168 kts | 205° |
| 2026-04-24 08:06 | -41.73925 | 148.08434 | 6374 ft | 168 kts | 205° |
| 2026-04-24 08:07 | -41.75026 | 148.07889 | 6373 ft | 168 kts | 205° |
| 2026-04-24 08:07 | -41.76136 | 148.07341 | 6373 ft | 168 kts | 205° |
| 2026-04-24 08:07 | -41.77229 | 148.06801 | 6373 ft | 168 kts | 205° |
| 2026-04-24 08:07 | -41.78327 | 148.06259 | 6373 ft | 168 kts | 205° |
| 2026-04-24 08:08 | -41.79429 | 148.05713 | 6372 ft | 168 kts | 205° |
| 2026-04-24 08:08 | -41.80524 | 148.05173 | 6372 ft | 168 kts | 205° |
| 2026-04-24 08:08 | -41.81633 | 148.04623 | 6371 ft | 168 kts | 205° |
| 2026-04-24 08:09 | -41.83821 | 148.03542 | 6368 ft | 168 kts | 205° |
| 2026-04-24 08:09 | -41.84914 | 148.02998 | 6367 ft | 168 kts | 205° |
| 2026-04-24 08:09 | -41.86021 | 148.02451 | 6366 ft | 168 kts | 205° |
| 2026-04-24 08:09 | -41.87118 | 148.01907 | 6365 ft | 168 kts | 205° |
| 2026-04-24 08:10 | -41.88216 | 148.01363 | 6363 ft | 168 kts | 205° |
| 2026-04-24 08:10 | -41.89307 | 148.00822 | 6362 ft | 168 kts | 205° |
| 2026-04-24 08:10 | -41.90403 | 148.00279 | 6360 ft | 168 kts | 205° |
| 2026-04-24 08:10 | -41.91498 | 147.99736 | 6359 ft | 168 kts | 205° |
| 2026-04-24 08:11 | -41.92602 | 147.99187 | 6357 ft | 168 kts | 205° |
| 2026-04-24 08:11 | -41.93696 | 147.98644 | 6355 ft | 168 kts | 205° |
| 2026-04-24 08:11 | -41.94790 | 147.98099 | 6354 ft | 168 kts | 205° |
| 2026-04-24 08:11 | -41.95886 | 147.97556 | 6352 ft | 168 kts | 205° |
| 2026-04-24 08:12 | -41.96993 | 147.97006 | 6351 ft | 168 kts | 205° |
| 2026-04-24 08:12 | -41.98089 | 147.96460 | 6350 ft | 168 kts | 205° |
| 2026-04-24 08:12 | -41.99180 | 147.95915 | 6373 ft | 168 kts | 205° |
| 2026-04-24 08:12 | -42.00278 | 147.95371 | 6418 ft | 168 kts | 205° |
| 2026-04-24 08:13 | -42.01388 | 147.94817 | 6440 ft | 168 kts | 205° |
| 2026-04-24 08:13 | -42.02488 | 147.94270 | 6451 ft | 168 kts | 205° |
| 2026-04-24 08:13 | -42.03582 | 147.93724 | 6455 ft | 168 kts | 205° |
| 2026-04-24 08:13 | -42.04690 | 147.93172 | 6462 ft | 168 kts | 205° |
| 2026-04-24 08:14 | -42.05786 | 147.92625 | 6470 ft | 168 kts | 205° |
| 2026-04-24 08:14 | -42.06882 | 147.92078 | 6478 ft | 168 kts | 205° |
| 2026-04-24 08:14 | -42.07975 | 147.91533 | 6487 ft | 168 kts | 205° |
| 2026-04-24 08:14 | -42.09083 | 147.90981 | 6490 ft | 168 kts | 205° |
| 2026-04-24 08:15 | -42.10188 | 147.90427 | 6487 ft | 168 kts | 205° |
| 2026-04-24 08:15 | -42.11282 | 147.89848 | 6496 ft | 169 kts | 205° |
| 2026-04-24 08:15 | -42.12386 | 147.89305 | 6483 ft | 167 kts | 205° |
| 2026-04-24 08:15 | -42.13490 | 147.88750 | 6475 ft | 167 kts | 205° |
| 2026-04-24 08:16 | -42.14587 | 147.88200 | 6473 ft | 168 kts | 205° |
| 2026-04-24 08:16 | -42.15688 | 147.87651 | 6473 ft | 168 kts | 205° |
| 2026-04-24 08:16 | -42.16782 | 147.87102 | 6473 ft | 168 kts | 205° |
| 2026-04-24 08:16 | -42.17876 | 147.86554 | 6473 ft | 168 kts | 205° |
| 2026-04-24 08:17 | -42.18969 | 147.86005 | 6472 ft | 167 kts | 205° |
| 2026-04-24 08:17 | -42.20073 | 147.85454 | 6472 ft | 167 kts | 205° |
| 2026-04-24 08:17 | -42.21164 | 147.84906 | 6472 ft | 167 kts | 205° |
| 2026-04-24 08:17 | -42.22257 | 147.84358 | 6471 ft | 167 kts | 205° |
| 2026-04-24 08:18 | -42.23373 | 147.83800 | 6471 ft | 168 kts | 205° |
| 2026-04-24 08:18 | -42.24470 | 147.83249 | 6471 ft | 168 kts | 205° |
| 2026-04-24 08:18 | -42.25561 | 147.82706 | 6363 ft | 168 kts | 204° |
| 2026-04-24 08:18 | -42.26669 | 147.82149 | 6171 ft | 167 kts | 205° |
| 2026-04-24 08:19 | -42.27755 | 147.81602 | 5978 ft | 166 kts | 205° |
| 2026-04-24 08:19 | -42.28837 | 147.81061 | 5784 ft | 165 kts | 205° |
| 2026-04-24 08:19 | -42.29916 | 147.80518 | 5590 ft | 165 kts | 205° |
| 2026-04-24 08:19 | -42.30992 | 147.79977 | 5396 ft | 164 kts | 205° |
| 2026-04-24 08:20 | -42.32064 | 147.79439 | 5202 ft | 164 kts | 205° |
| 2026-04-24 08:20 | -42.33129 | 147.78902 | 5008 ft | 163 kts | 205° |
| 2026-04-24 08:20 | -42.34192 | 147.78366 | 4815 ft | 163 kts | 205° |
| 2026-04-24 08:20 | -42.35244 | 147.77792 | 4634 ft | 162 kts | 209° |
| 2026-04-24 08:21 | -42.36263 | 147.77138 | 4542 ft | 161 kts | 211° |
| 2026-04-24 08:21 | -42.37288 | 147.76488 | 4501 ft | 162 kts | 210° |
| 2026-04-24 08:21 | -42.38314 | 147.75841 | 4484 ft | 163 kts | 210° |
| 2026-04-24 08:21 | -42.39338 | 147.75191 | 4477 ft | 163 kts | 210° |
| 2026-04-24 08:22 | -42.40376 | 147.74535 | 4474 ft | 163 kts | 211° |
| 2026-04-24 08:22 | -42.41399 | 147.73888 | 4472 ft | 163 kts | 211° |
| 2026-04-24 08:22 | -42.42430 | 147.73233 | 4471 ft | 163 kts | 211° |
| 2026-04-24 08:22 | -42.43457 | 147.72583 | 4471 ft | 163 kts | 211° |
| 2026-04-24 08:23 | -42.44501 | 147.71924 | 4397 ft | 163 kts | 210° |
| 2026-04-24 08:23 | -42.45529 | 147.71272 | 4211 ft | 163 kts | 210° |
| 2026-04-24 08:23 | -42.46548 | 147.70628 | 4019 ft | 161 kts | 210° |
| 2026-04-24 08:23 | -42.47576 | 147.69977 | 3822 ft | 161 kts | 211° |
| 2026-04-24 08:24 | -42.48587 | 147.69333 | 3629 ft | 160 kts | 211° |
| 2026-04-24 08:24 | -42.49598 | 147.68692 | 3433 ft | 160 kts | 211° |
| 2026-04-24 08:24 | -42.50602 | 147.68053 | 3243 ft | 160 kts | 211° |
| 2026-04-24 08:24 | -42.51608 | 147.67412 | 3058 ft | 159 kts | 211° |
| 2026-04-24 08:25 | -42.52622 | 147.66765 | 2869 ft | 159 kts | 211° |
| 2026-04-24 08:25 | -42.53627 | 147.66126 | 2683 ft | 159 kts | 211° |
| 2026-04-24 08:25 | -42.54636 | 147.65485 | 2493 ft | 159 kts | 211° |
| 2026-04-24 08:25 | -42.55644 | 147.64844 | 2357 ft | 159 kts | 211° |
| 2026-04-24 08:26 | -42.56648 | 147.64200 | 2298 ft | 159 kts | 211° |
| 2026-04-24 08:26 | -42.57642 | 147.63564 | 2278 ft | 159 kts | 211° |
| 2026-04-24 08:26 | -42.58492 | 147.63020 | 2269 ft | 159 kts | 211° |
| 2026-04-24 08:26 | -42.59497 | 147.62378 | 2265 ft | 159 kts | 210° |
| 2026-04-24 08:27 | -42.60499 | 147.61740 | 2266 ft | 159 kts | 210° |
| 2026-04-24 08:27 | -42.61513 | 147.61089 | 2264 ft | 159 kts | 211° |
| 2026-04-24 08:27 | -42.62511 | 147.60452 | 2261 ft | 159 kts | 211° |
| 2026-04-24 08:27 | -42.63519 | 147.59807 | 2265 ft | 159 kts | 210° |
| 2026-04-24 08:28 | -42.64520 | 147.59168 | 2265 ft | 159 kts | 210° |
| 2026-04-24 08:28 | -42.65519 | 147.58528 | 2265 ft | 159 kts | 210° |
| 2026-04-24 08:28 | -42.66520 | 147.57890 | 2268 ft | 159 kts | 210° |
| 2026-04-24 08:28 | -42.67521 | 147.57248 | 2268 ft | 159 kts | 210° |
| 2026-04-24 08:29 | -42.68509 | 147.56615 | 2258 ft | 156 kts | 210° |
| 2026-04-24 08:29 | -42.69480 | 147.56032 | 1939 ft | 148 kts | 206° |
| 2026-04-24 08:29 | -42.70387 | 147.55606 | 1869 ft | 123 kts | 203° |
| 2026-04-24 08:29 | -42.71137 | 147.55281 | 1987 ft | 102 kts | 209° |
| 2026-04-24 08:30 | -42.71770 | 147.54924 | 2250 ft | 97 kts | 214° |
| 2026-04-24 08:30 | -42.72392 | 147.54501 | 2415 ft | 106 kts | 213° |
| 2026-04-24 08:30 | -42.73113 | 147.54156 | 2596 ft | 112 kts | 199° |
| 2026-04-24 08:30 | -42.73889 | 147.53963 | 2777 ft | 114 kts | 198° |
| 2026-04-24 08:31 | -42.74650 | 147.53670 | 2929 ft | 117 kts | 205° |
| 2026-04-24 08:31 | -42.75479 | 147.53287 | 2884 ft | 134 kts | 201° |
| 2026-04-24 08:31 | -42.76364 | 147.52904 | 2958 ft | 133 kts | 206° |
| 2026-04-24 08:31 | -42.77255 | 147.52493 | 3031 ft | 136 kts | 196° |
| 2026-04-24 08:32 | -42.78204 | 147.52373 | 3081 ft | 140 kts | 191° |
| 2026-04-24 08:32 | -42.79182 | 147.52237 | 3084 ft | 144 kts | 191° |
| 2026-04-24 08:32 | -42.80200 | 147.52113 | 2916 ft | 153 kts | 190° |
| 2026-04-24 08:32 | -42.81279 | 147.51985 | 2701 ft | 159 kts | 191° |
| 2026-04-24 08:33 | -42.82402 | 147.51798 | 2292 ft | 171 kts | 194° |
| 2026-04-24 08:33 | -42.83522 | 147.51329 | 1957 ft | 165 kts | 217° |
| 2026-04-24 08:33 | -42.84280 | 147.50291 | 1798 ft | 148 kts | 244° |
| 2026-04-24 08:33 | -42.84886 | 147.49196 | 1706 ft | 142 kts | 238° |
| 2026-04-24 08:34 | -42.85447 | 147.48106 | 1394 ft | 140 kts | 253° |
| 2026-04-24 08:34 | -42.85494 | 147.46922 | 1219 ft | 116 kts | 297° |
| 2026-04-24 08:34 | -42.84941 | 147.46402 | 1077 ft | 96 kts | 355° |
| 2026-04-24 08:34 | -42.84383 | 147.46838 | 1032 ft | 95 kts | 49° |
| 2026-04-24 08:35 | -42.84018 | 147.47624 | 1026 ft | 102 kts | 55° |
| 2026-04-24 08:35 | -42.83719 | 147.48550 | 793 ft | 124 kts | 84° |
| 2026-04-24 08:35 | -42.84255 | 147.49257 | 897 ft | 116 kts | 191° |
| 2026-04-24 08:35 | -42.84773 | 147.48560 | 1100 ft | 107 kts | 259° |
| 2026-04-24 08:36 | -42.84718 | 147.47560 | 1136 ft | 103 kts | 282° |
| 2026-04-24 08:36 | -42.84440 | 147.46686 | 1092 ft | 101 kts | 307° |
| 2026-04-24 08:36 | -42.83892 | 147.46188 | 961 ft | 96 kts | 353° |
| 2026-04-24 08:36 | -42.83285 | 147.46498 | 771 ft | 87 kts | 39° |
| 2026-04-24 08:37 | -42.82985 | 147.46861 | 820 ft | 32 kts | 54° |
| 2026-04-24 08:37 | -42.83080 | 147.47201 | 614 ft | 55 kts | 103° |
| 2026-04-24 08:37 | -42.83253 | 147.47745 | 451 ft | 66 kts | 103° |
| 2026-04-24 08:37 | -42.83321 | 147.48325 | 286 ft | 57 kts | 36° |
| 2026-04-24 08:38 | -42.83078 | 147.48338 | 139 ft | 15 kts | 313° |
| 2026-04-24 08:38 | -42.82986 | 147.48296 | 108 ft | 19 kts | 292° |
| 2026-04-24 08:38 | -42.82921 | 147.48119 | 83 ft | 20 kts | 275° |
| 2026-04-24 08:38 | -42.82898 | 147.48013 | 60 ft | 5 kts | 291° |
| 2026-04-24 08:39 | -42.82883 | 147.47949 | 59 ft | 2 kts | 292° |
| 2026-04-24 08:39 | -42.82873 | 147.47900 | 57 ft | 7 kts | 283° |
| 2026-04-24 08:39 | -42.82860 | 147.47816 | 59 ft | 7 kts | 287° |
| 2026-04-24 08:39 | -42.82848 | 147.47759 | 60 ft | 6 kts | 286° |
| 2026-04-24 08:40 | -42.82835 | 147.47697 | 60 ft | 8 kts | 284° |
| 2026-04-24 08:40 | -42.82821 | 147.47613 | 60 ft | 6 kts | 276° |
| 2026-04-24 08:40 | -42.82843 | 147.47586 | 61 ft | 6 kts | 191° |
| 2026-04-24 08:40 | -42.82885 | 147.47604 | 62 ft | 7 kts | 105° |
| 2026-04-24 08:41 | -42.82901 | 147.47688 | 62 ft | 9 kts | 107° |
| 2026-04-24 08:41 | -42.82937 | 147.47702 | 62 ft | 5 kts | 219° |
| 2026-04-24 08:41 | -42.82937 | 147.47670 | 62 ft | 0 kts | 337° |